Time;durP1;ratioP1;P1;durP2;ratioP2;P2;SDS_P1;SDS_P2;PMS_P1;PMS_P2;Temp;Humidity;BMP_temperature;BMP_pressure;BME280_temperature;BME280_humidity;BME280_pressure;Samples;Min_cycle;Max_cycle;Signal;HPM_P1;HPM_P2
2022/07/14 00:00:57;;;;;;;10.82;3.28;;;;;;;;;;4802573;29;20409;-71
2022/07/14 00:03:27;;;;;;;6.10;2.83;;;;;;;;;;4805309;29;20065;-69
2022/07/14 00:05:58;;;;;;;8.65;3.38;;;;;;;;;;4828561;29;20054;-71
2022/07/14 00:08:28;;;;;;;8.65;3.80;;;;;;;;;;4841451;29;20062;-71
2022/07/14 00:10:59;;;;;;;10.50;4.57;;;;;;;;;;4841272;29;20081;-71
2022/07/14 00:13:29;;;;;;;8.80;3.80;;;;;;;;;;4831993;29;20070;-72
2022/07/14 00:16:00;;;;;;;7.68;3.55;;;;;;;;;;4823224;29;20062;-71
2022/07/14 00:18:30;;;;;;;6.65;3.38;;;;;;;;;;4841410;29;20084;-70
2022/07/14 00:21:01;;;;;;;8.60;3.78;;;;;;;;;;4831999;29;20436;-69
2022/07/14 00:23:32;;;;;;;7.10;3.35;;;;;;;;;;4822878;29;20069;-71
2022/07/14 00:26:04;;;;;;;7.65;3.40;;;;;;;;;;4859128;29;20057;-71
2022/07/14 00:28:35;;;;;;;8.93;3.83;;;;;;;;;;4859776;29;20407;-71
2022/07/14 00:31:10;;;;;;;8.65;3.90;;;;;;;;;;4859245;29;20081;-71
2022/07/14 00:33:40;;;;;;;9.65;3.83;;;;;;;;;;4822305;29;20077;-71
2022/07/14 00:36:11;;;;;;;8.48;3.83;;;;;;;;;;4822322;29;20062;-71
2022/07/14 00:38:41;;;;;;;10.45;3.97;;;;;;;;;;4812844;29;20104;-71
2022/07/14 00:41:12;;;;;;;8.65;4.18;;;;;;;;;;4840701;29;20062;-71
2022/07/14 00:43:42;;;;;;;51.45;16.83;;;;;;;;;;4849228;29;20065;-71
2022/07/14 00:46:12;;;;;;;76.85;27.15;;;;;;;;;;4825975;29;20438;-71
2022/07/14 00:48:43;;;;;;;41.75;16.10;;;;;;;;;;4840950;29;20108;-71
2022/07/14 00:51:13;;;;;;;18.23;6.80;;;;;;;;;;4840639;29;20058;-71
2022/07/14 00:53:49;;;;;;;9.82;4.03;;;;;;;;;;4839013;29;20515;-70
2022/07/14 00:56:19;;;;;;;7.38;3.53;;;;;;;;;;4801274;29;20055;-71
2022/07/14 00:58:50;;;;;;;6.13;3.03;;;;;;;;;;4822189;29;20055;-71
2022/07/14 01:01:21;;;;;;;7.85;3.15;;;;;;;;;;4840328;29;20053;-70
2022/07/14 01:03:51;;;;;;;5.55;2.65;;;;;;;;;;4849315;29;20061;-70
2022/07/14 01:06:21;;;;;;;6.68;2.72;;;;;;;;;;4840599;29;20172;-69
2022/07/14 01:08:51;;;;;;;7.35;2.72;;;;;;;;;;4840726;29;20070;-71
2022/07/14 01:11:23;;;;;;;7.55;3.40;;;;;;;;;;4849939;29;20053;-71
2022/07/14 01:13:55;;;;;;;6.35;2.95;;;;;;;;;;4841572;29;20049;-72
2022/07/14 01:16:26;;;;;;;7.05;3.28;;;;;;;;;;4809582;29;20050;-72
2022/07/14 01:18:56;;;;;;;7.30;3.92;;;;;;;;;;4840259;29;20073;-72
2022/07/14 01:21:26;;;;;;;5.47;2.92;;;;;;;;;;4840316;29;20058;-72
2022/07/14 01:23:58;;;;;;;7.03;2.70;;;;;;;;;;4840081;29;20057;-69
2022/07/14 01:26:29;;;;;;;6.60;2.78;;;;;;;;;;4858345;29;20050;-72
2022/07/14 01:28:59;;;;;;;6.05;2.53;;;;;;;;;;4858424;29;20046;-72
2022/07/14 01:31:29;;;;;;;7.18;2.70;;;;;;;;;;4858391;29;20057;-72
2022/07/14 01:34:02;;;;;;;7.25;3.00;;;;;;;;;;4858494;29;20502;-72
2022/07/14 01:36:34;;;;;;;5.38;2.65;;;;;;;;;;4848759;29;20053;-72
2022/07/14 01:39:07;;;;;;;5.47;2.85;;;;;;;;;;4861529;29;20056;-73
2022/07/14 01:41:38;;;;;;;5.55;2.35;;;;;;;;;;4876547;29;20060;-71
2022/07/14 01:44:10;;;;;;;6.07;2.75;;;;;;;;;;4808976;29;20061;-72
2022/07/14 01:46:40;;;;;;;5.25;2.80;;;;;;;;;;4814660;29;20539;-72
2022/07/14 01:49:12;;;;;;;6.80;3.92;;;;;;;;;;4800126;29;20062;-72
2022/07/14 01:51:45;;;;;;;7.07;2.65;;;;;;;;;;4802856;29;20059;-72
2022/07/14 01:54:16;;;;;;;;;;;;;;;;;;4757356;30;20394;-72
2022/07/14 01:56:47;;;;;;;7.22;2.67;;;;;;;;;;4739453;30;20358;-73
2022/07/14 01:59:17;;;;;;;5.15;2.65;;;;;;;;;;4732118;30;20565;-71
2022/07/14 02:01:48;;;;;;;5.55;2.75;;;;;;;;;;4774078;30;20055;-71
2022/07/14 02:04:21;;;;;;;6.05;2.90;;;;;;;;;;4767318;30;20086;-72
2022/07/14 02:06:54;;;;;;;6.03;2.75;;;;;;;;;;4802673;29;20055;-72
2022/07/14 02:12:45;;;;;;;6.45;2.75;;;;;;;;;;4786013;29;20067;-73
2022/07/14 02:15:15;;;;;;;6.22;3.10;;;;;;;;;;4784945;30;20055;-73
2022/07/14 02:17:46;;;;;;;5.85;2.45;;;;;;;;;;4768998;30;20072;-72
2022/07/14 02:20:19;;;;;;;7.13;2.97;;;;;;;;;;4801245;29;20059;-72
2022/07/14 02:22:49;;;;;;;6.60;2.58;;;;;;;;;;4802700;29;20067;-72
2022/07/14 02:25:19;;;;;;;7.30;3.03;;;;;;;;;;4801865;29;20444;-71
2022/07/14 02:27:50;;;;;;;7.00;2.65;;;;;;;;;;4820935;29;20412;-71
2022/07/14 02:30:21;;;;;;;10.43;2.50;;;;;;;;;;4820551;29;20515;-72
2022/07/14 02:32:52;;;;;;;8.80;3.22;;;;;;;;;;4820984;29;20066;-72
2022/07/14 02:35:23;;;;;;;5.03;2.50;;;;;;;;;;4820707;29;20062;-71
2022/07/14 02:37:53;;;;;;;5.90;2.75;;;;;;;;;;4802408;29;20055;-72
2022/07/14 02:40:26;;;;;;;5.75;2.67;;;;;;;;;;4735049;30;20072;-72
2022/07/14 02:42:56;;;;;;;6.80;2.95;;;;;;;;;;4731443;30;20068;-72
2022/07/14 02:45:26;;;;;;;5.90;2.78;;;;;;;;;;4732559;30;20064;-72
2022/07/14 02:47:57;;;;;;;6.30;2.88;;;;;;;;;;4763460;30;20071;-72
2022/07/14 02:50:27;;;;;;;5.63;2.65;;;;;;;;;;4784143;29;20051;-67
2022/07/14 02:52:58;;;;;;;6.43;2.60;;;;;;;;;;4784321;29;20055;-66
2022/07/14 02:55:35;;;;;;;7.85;2.80;;;;;;;;;;4766130;29;20056;-69
2022/07/14 02:58:06;;;;;;;6.18;2.47;;;;;;;;;;4729181;30;20057;-69
2022/07/14 03:00:38;;;;;;;7.57;2.72;;;;;;;;;;4713654;30;20506;-66
2022/07/14 03:03:10;;;;;;;5.32;1.88;;;;;;;;;;4703486;30;20053;-70
2022/07/14 03:05:41;;;;;;;5.82;2.78;;;;;;;;;;4720128;30;20061;-68
2022/07/14 03:08:12;;;;;;;6.78;3.22;;;;;;;;;;4765994;30;20939;-69
2022/07/14 03:10:43;;;;;;;6.60;2.70;;;;;;;;;;4747784;30;20048;-71
2022/07/14 03:13:14;;;;;;;7.75;2.95;;;;;;;;;;4748603;30;20056;-72
2022/07/14 03:15:45;;;;;;;8.18;3.38;;;;;;;;;;4758286;30;20055;-72
2022/07/14 03:18:16;;;;;;;7.32;3.60;;;;;;;;;;4780608;29;20064;-72
2022/07/14 03:20:47;;;;;;;8.65;3.20;;;;;;;;;;4750895;30;20107;-72
2022/07/14 03:23:18;;;;;;;5.80;2.97;;;;;;;;;;4747706;30;20056;-72
2022/07/14 03:25:49;;;;;;;5.93;2.97;;;;;;;;;;4762241;30;20056;-72
2022/07/14 03:28:20;;;;;;;6.10;2.70;;;;;;;;;;4755323;30;20056;-72
2022/07/14 03:30:55;;;;;;;6.85;2.88;;;;;;;;;;4758308;30;20054;-73
2022/07/14 03:33:27;;;;;;;7.80;3.55;;;;;;;;;;4783426;30;20059;-71
2022/07/14 03:35:58;;;;;;;6.28;3.08;;;;;;;;;;4772286;29;20425;-71
2022/07/14 03:38:30;;;;;;;7.03;2.72;;;;;;;;;;4801221;29;20063;-71
2022/07/14 03:41:06;;;;;;;5.20;2.53;;;;;;;;;;4801057;29;20504;-72
2022/07/14 03:43:39;;;;;;;7.40;2.95;;;;;;;;;;4797228;29;20063;-72
2022/07/14 03:46:09;;;;;;;6.72;2.47;;;;;;;;;;4794941;29;20050;-70
2022/07/14 03:48:45;;;;;;;6.18;2.97;;;;;;;;;;4826180;29;20059;-71
2022/07/14 03:51:15;;;;;;;6.30;3.20;;;;;;;;;;4819752;29;20062;-72
2022/07/14 03:53:47;;;;;;;6.05;2.97;;;;;;;;;;4831370;29;20050;-72
2022/07/14 03:56:18;;;;;;;5.55;2.53;;;;;;;;;;4800918;29;20055;-71
2022/07/14 03:58:49;;;;;;;6.53;2.88;;;;;;;;;;4771178;29;20059;-71
2022/07/14 04:01:22;;;;;;;9.75;2.92;;;;;;;;;;4769544;29;20064;-72
2022/07/14 04:03:55;;;;;;;7.20;3.38;;;;;;;;;;4750986;30;20056;-73
2022/07/14 04:06:27;;;;;;;5.90;2.55;;;;;;;;;;4777741;30;20063;-72
2022/07/14 04:09:00;;;;;;;11.15;2.83;;;;;;;;;;4783131;29;20070;-72
2022/07/14 04:11:34;;;;;;;5.85;2.88;;;;;;;;;;4741489;30;20073;-74
2022/07/14 04:14:05;;;;;;;6.93;2.83;;;;;;;;;;4729314;30;20061;-72
2022/07/14 04:16:39;;;;;;;6.38;2.45;;;;;;;;;;4724003;30;20075;-72
2022/07/14 04:19:09;;;;;;;5.38;2.63;;;;;;;;;;4776865;29;20067;-72
2022/07/14 04:21:42;;;;;;;;;;;;;;;;;;4765685;30;20064;-72
2022/07/14 04:24:13;;;;;;;5.43;2.95;;;;;;;;;;4765598;30;19926;-70
2022/07/14 04:26:44;;;;;;;8.30;3.30;;;;;;;;;;4789518;29;20536;-72
2022/07/14 04:29:15;;;;;;;6.97;2.88;;;;;;;;;;4771220;29;20055;-72
2022/07/14 04:31:46;;;;;;;6.22;2.80;;;;;;;;;;4786401;29;20052;-71
2022/07/14 04:34:21;;;;;;;6.00;2.53;;;;;;;;;;4723328;30;20060;-71
2022/07/14 04:36:53;;;;;;;6.00;3.00;;;;;;;;;;4718153;30;20069;-71
2022/07/14 04:39:23;;;;;;;5.65;2.85;;;;;;;;;;4723764;30;20068;-72
2022/07/14 04:41:53;;;;;;;5.60;2.58;;;;;;;;;;4744138;30;20056;-71
2022/07/14 04:44:24;;;;;;;6.18;2.67;;;;;;;;;;4730426;30;20069;-73
2022/07/14 04:46:55;;;;;;;6.60;3.08;;;;;;;;;;4755954;30;20071;-72
2022/07/14 04:52:15;;;;;;;7.30;3.17;;;;;;;;;;4740419;30;20068;-72
2022/07/14 04:54:52;;;;;;;6.68;3.00;;;;;;;;;;4715710;30;20514;-72
2022/07/14 04:57:32;;;;;;;8.10;3.13;;;;;;;;;;4725213;30;20064;-71
2022/07/14 05:00:07;;;;;;;6.35;2.65;;;;;;;;;;4705462;30;20096;-70
2022/07/14 05:02:38;;;;;;;7.93;3.30;;;;;;;;;;4732858;30;20465;-71
2022/07/14 05:05:09;;;;;;;7.22;3.33;;;;;;;;;;4785827;30;20056;-71
2022/07/14 05:07:40;;;;;;;5.70;2.45;;;;;;;;;;4786063;30;20143;-72
2022/07/14 05:10:15;;;;;;;6.72;2.80;;;;;;;;;;4735361;30;20087;-71
2022/07/14 05:12:46;;;;;;;6.80;2.63;;;;;;;;;;4782040;30;20062;-68
2022/07/14 05:15:15;;;;;;;7.93;2.80;;;;;;;;;;4757923;30;20055;-70
2022/07/14 05:17:46;;;;;;;7.22;2.90;;;;;;;;;;4767660;30;20176;-72
2022/07/14 05:20:17;;;;;;;6.20;2.67;;;;;;;;;;4785484;30;20055;-71
2022/07/14 05:22:51;;;;;;;8.48;2.72;;;;;;;;;;4756551;30;20056;-71
2022/07/14 05:25:21;;;;;;;6.50;3.08;;;;;;;;;;4803139;29;20054;-70
2022/07/14 05:27:52;;;;;;;5.32;2.58;;;;;;;;;;4771366;30;20193;-71
2022/07/14 05:30:28;;;;;;;5.97;3.17;;;;;;;;;;4767348;30;20082;-72
2022/07/14 05:32:59;;;;;;;5.85;2.88;;;;;;;;;;4791421;29;20063;-71
2022/07/14 05:35:31;;;;;;;5.85;2.42;;;;;;;;;;4785044;30;20067;-72
2022/07/14 05:38:02;;;;;;;7.75;3.08;;;;;;;;;;4777740;29;20065;-72
2022/07/14 05:40:39;;;;;;;7.72;3.03;;;;;;;;;;4762489;29;20545;-69
2022/07/14 05:43:09;;;;;;;5.60;2.60;;;;;;;;;;4809905;29;20456;-70
2022/07/14 05:45:40;;;;;;;8.60;2.75;;;;;;;;;;4796745;29;20390;-71
2022/07/14 05:48:10;;;;;;;7.97;2.72;;;;;;;;;;4778068;29;20059;-71
2022/07/14 05:50:41;;;;;;;8.38;2.55;;;;;;;;;;4781732;29;20067;-71
2022/07/14 05:53:11;;;;;;;12.15;3.25;;;;;;;;;;4753156;30;20066;-71
2022/07/14 05:55:42;;;;;;;6.68;2.80;;;;;;;;;;4763206;29;20066;-71
2022/07/14 05:58:13;;;;;;;7.10;2.85;;;;;;;;;;4763505;29;20067;-72
2022/07/14 06:00:42;;;;;;;5.55;2.42;;;;;;;;;;4751493;30;20067;-71
2022/07/14 06:03:13;;;;;;;8.32;2.58;;;;;;;;;;4767561;30;20075;-71
2022/07/14 06:05:44;;;;;;;4.93;2.60;;;;;;;;;;4759534;30;20059;-70
2022/07/14 06:08:14;;;;;;;5.35;2.33;;;;;;;;;;4767045;30;20437;-70
2022/07/14 06:10:45;;;;;;;6.53;2.55;;;;;;;;;;4751428;30;20476;-71
2022/07/14 06:13:15;;;;;;;6.93;2.45;;;;;;;;;;4802830;29;20501;-71
2022/07/14 06:15:46;;;;;;;6.28;2.15;;;;;;;;;;4788040;29;20062;-71
2022/07/14 06:18:16;;;;;;;8.40;2.60;;;;;;;;;;4817419;29;20054;-71
2022/07/14 06:20:48;;;;;;;5.78;2.53;;;;;;;;;;4817477;29;20066;-72
2022/07/14 06:23:18;;;;;;;6.20;2.70;;;;;;;;;;4803195;29;20079;-71
2022/07/14 06:25:49;;;;;;;6.30;2.42;;;;;;;;;;4805744;29;20070;-71
2022/07/14 06:28:26;;;;;;;5.10;2.58;;;;;;;;;;4838376;29;20054;-71
2022/07/14 06:30:59;;;;;;;5.70;2.65;;;;;;;;;;4817063;29;20054;-71
2022/07/14 06:33:30;;;;;;;5.88;3.22;;;;;;;;;;4802749;29;20518;-71
2022/07/14 06:36:11;;;;;;;7.25;2.50;;;;;;;;;;4752977;30;20173;-71
2022/07/14 06:38:42;;;;;;;5.80;3.13;;;;;;;;;;4790344;29;20496;-71
2022/07/14 06:41:13;;;;;;;6.03;2.55;;;;;;;;;;4790304;29;20101;-71
2022/07/14 06:43:45;;;;;;;5.50;2.70;;;;;;;;;;4784241;30;20055;-72
2022/07/14 06:46:18;;;;;;;6.38;2.63;;;;;;;;;;4770507;29;20058;-71
2022/07/14 06:48:49;;;;;;;5.63;2.50;;;;;;;;;;4750796;30;20219;-71
2022/07/14 06:51:19;;;;;;;6.53;2.40;;;;;;;;;;4748590;30;20064;-71
2022/07/14 06:53:49;;;;;;;4.95;2.50;;;;;;;;;;4730923;30;20052;-71
2022/07/14 06:56:20;;;;;;;5.70;2.50;;;;;;;;;;4687589;30;20060;-71
2022/07/14 06:58:51;;;;;;;6.68;2.33;;;;;;;;;;4716535;30;20053;-71
2022/07/14 07:01:21;;;;;;;5.80;2.72;;;;;;;;;;4730932;30;20072;-71
2022/07/14 07:03:52;;;;;;;5.97;2.70;;;;;;;;;;4731066;30;20406;-70
2022/07/14 07:09:16;;;;;;;4.90;2.45;;;;;;;;;;4760812;30;20060;-71
2022/07/14 07:11:50;;;;;;;5.90;2.65;;;;;;;;;;4766497;30;20068;-71
2022/07/14 07:14:20;;;;;;;5.35;2.25;;;;;;;;;;4745186;30;20074;-71
2022/07/14 07:16:51;;;;;;;5.15;2.22;;;;;;;;;;4741978;30;20063;-69
2022/07/14 07:19:22;;;;;;;9.00;2.80;;;;;;;;;;4766239;30;20064;-71
2022/07/14 07:21:52;;;;;;;4.10;2.58;;;;;;;;;;4778490;30;20496;-71
2022/07/14 07:24:22;;;;;;;6.05;2.33;;;;;;;;;;4784067;30;20512;-70
2022/07/14 07:26:52;;;;;;;4.72;2.38;;;;;;;;;;4798164;29;20533;-71
2022/07/14 07:29:22;;;;;;;6.60;2.03;;;;;;;;;;4757232;30;20059;-71
2022/07/14 07:31:53;;;;;;;4.82;2.22;;;;;;;;;;4802026;29;20062;-71
2022/07/14 07:34:23;;;;;;;5.82;2.22;;;;;;;;;;4820504;29;20067;-72
2022/07/14 07:36:54;;;;;;;5.97;2.15;;;;;;;;;;4820292;29;20070;-71
2022/07/14 07:39:45;;;;;;;6.95;2.67;;;;;;;;;;4820239;29;20567;-71
2022/07/14 07:42:15;;;;;;;6.45;2.22;;;;;;;;;;4820262;29;20065;-70
2022/07/14 07:44:48;;;;;;;5.95;2.50;;;;;;;;;;4849570;29;20061;-70
2022/07/14 07:47:18;;;;;;;4.63;2.00;;;;;;;;;;4871922;29;20057;-71
2022/07/14 07:49:48;;;;;;;11.55;2.20;;;;;;;;;;4856288;29;20061;-71
2022/07/14 07:52:20;;;;;;;5.82;2.45;;;;;;;;;;4856487;29;20068;-71
2022/07/14 07:54:50;;;;;;;4.55;1.98;;;;;;;;;;4856769;29;20396;-71
2022/07/14 07:57:42;;;;;;;6.03;2.25;;;;;;;;;;4856366;29;20074;-71
2022/07/14 08:00:13;;;;;;;4.43;2.03;;;;;;;;;;4841418;29;20050;-71
2022/07/14 08:02:48;;;;;;;4.75;2.15;;;;;;;;;;4834458;29;20055;-70
2022/07/14 08:05:24;;;;;;;3.67;1.83;;;;;;;;;;4835348;29;20050;-70
2022/07/14 08:08:15;;;;;;;5.15;2.20;;;;;;;;;;4856414;29;20061;-70
2022/07/14 08:10:45;;;;;;;7.05;2.00;;;;;;;;;;4856165;29;20061;-72
2022/07/14 08:13:15;;;;;;;6.82;2.22;;;;;;;;;;4856433;29;20057;-72
2022/07/14 08:15:46;;;;;;;5.20;1.90;;;;;;;;;;4856270;29;20054;-70
2022/07/14 08:18:16;;;;;;;5.45;2.08;;;;;;;;;;4856376;29;20057;-72
2022/07/14 08:20:49;;;;;;;5.30;2.22;;;;;;;;;;4819400;29;20050;-73
2022/07/14 08:23:19;;;;;;;;;;;;;;;;;;4822901;29;20073;-72
2022/07/14 08:25:49;;;;;;;3.65;1.77;;;;;;;;;;4792746;29;19924;-72
2022/07/14 08:28:20;;;;;;;4.90;2.08;;;;;;;;;;4822950;29;20094;-71
2022/07/14 08:30:51;;;;;;;4.93;1.70;;;;;;;;;;4808127;29;20061;-72
2022/07/14 08:33:22;;;;;;;6.20;2.10;;;;;;;;;;4808222;29;20058;-71
2022/07/14 08:35:52;;;;;;;7.10;2.13;;;;;;;;;;4754796;29;20081;-72
2022/07/14 08:38:22;;;;;;;3.83;1.80;;;;;;;;;;4817747;29;20643;-71
2022/07/14 08:40:53;;;;;;;4.10;2.47;;;;;;;;;;4808142;29;20069;-71
2022/07/14 08:43:23;;;;;;;4.20;1.58;;;;;;;;;;4804804;29;20071;-71
2022/07/14 08:45:54;;;;;;;3.50;1.55;;;;;;;;;;4804289;29;20077;-70
2022/07/14 08:48:25;;;;;;;5.43;1.98;;;;;;;;;;4775419;29;20506;-71
2022/07/14 08:50:56;;;;;;;4.90;1.92;;;;;;;;;;4804636;29;20069;-72
2022/07/14 08:53:28;;;;;;;7.60;1.85;;;;;;;;;;4804862;29;20058;-72
2022/07/14 08:55:59;;;;;;;4.53;1.77;;;;;;;;;;4774487;29;20066;-71
2022/07/14 08:58:30;;;;;;;4.38;2.13;;;;;;;;;;4813804;29;20058;-71
2022/07/14 09:01:01;;;;;;;6.63;1.98;;;;;;;;;;4808167;29;20403;-69
2022/07/14 09:03:31;;;;;;;7.35;2.40;;;;;;;;;;4822933;29;20062;-70
2022/07/14 09:06:43;;;;;;;6.00;2.30;;;;;;;;;;4822651;29;20057;-72
2022/07/14 09:09:31;;;;;;;5.95;2.22;;;;;;;;;;4821574;29;20062;-72
2022/07/14 09:12:08;;;;;;;4.43;2.45;;;;;;;;;;4807565;29;20081;-70
2022/07/14 09:17:55;;;;;;;5.80;1.92;;;;;;;;;;4822119;29;20110;-72
2022/07/14 09:20:31;;;;;;;3.60;1.67;;;;;;;;;;4826459;29;20058;-72
2022/07/14 09:23:04;;;;;;;6.13;2.05;;;;;;;;;;4845559;29;20124;-72
2022/07/14 09:25:40;;;;;;;5.55;2.28;;;;;;;;;;4839978;29;20061;-71
2022/07/14 09:28:11;;;;;;;7.18;2.33;;;;;;;;;;4855431;29;20061;-71
2022/07/14 09:30:41;;;;;;;5.25;2.50;;;;;;;;;;4840324;29;20069;-70
2022/07/14 09:33:11;;;;;;;8.25;2.13;;;;;;;;;;4838745;29;20050;-72
2022/07/14 09:35:42;;;;;;;5.28;2.40;;;;;;;;;;4858457;29;20447;-71
2022/07/14 09:38:23;;;;;;;5.43;2.20;;;;;;;;;;4858488;29;20494;-72
2022/07/14 09:41:08;;;;;;;6.80;2.20;;;;;;;;;;4858229;29;20403;-71
2022/07/14 09:43:39;;;;;;;5.20;1.80;;;;;;;;;;4877015;29;20064;-71
2022/07/14 09:46:09;;;;;;;6.78;2.00;;;;;;;;;;4873173;29;20062;-70
2022/07/14 09:48:40;;;;;;;4.38;1.90;;;;;;;;;;4858440;29;20050;-72
2022/07/14 09:51:15;;;;;;;5.93;2.33;;;;;;;;;;4843203;29;20057;-70
2022/07/14 09:53:47;;;;;;;10.82;2.92;;;;;;;;;;4827808;29;20072;-71
2022/07/14 09:56:17;;;;;;;5.18;2.35;;;;;;;;;;4876662;29;20064;-70
2022/07/14 09:58:54;;;;;;;4.85;2.35;;;;;;;;;;4862026;29;20057;-71
2022/07/14 10:01:25;;;;;;;7.75;2.00;;;;;;;;;;4858117;29;20065;-72
2022/07/14 10:03:57;;;;;;;3.35;1.80;;;;;;;;;;4858369;29;20050;-72
2022/07/14 10:06:27;;;;;;;4.68;2.10;;;;;;;;;;4858107;29;20053;-71
2022/07/14 10:09:06;;;;;;;3.70;2.03;;;;;;;;;;4858200;29;20387;-73
2022/07/14 10:11:39;;;;;;;7.00;2.10;;;;;;;;;;4857833;29;20061;-70
2022/07/14 10:14:09;;;;;;;8.82;3.67;;;;;;;;;;4858078;29;20065;-73
2022/07/14 10:16:41;;;;;;;12.73;5.80;;;;;;;;;;4858156;29;20050;-72
2022/07/14 10:19:12;;;;;;;;;;;;;;;;;;4858694;29;20068;-74
2022/07/14 10:21:45;;;;;;;5.05;2.42;;;;;;;;;;4870632;29;19923;-67
2022/07/14 10:24:17;;;;;;;5.40;2.33;;;;;;;;;;4845539;29;20416;-72
2022/07/14 10:26:48;;;;;;;5.28;2.55;;;;;;;;;;4876279;29;20065;-73
2022/07/14 10:29:18;;;;;;;5.13;2.55;;;;;;;;;;4860890;29;20602;-72
2022/07/14 10:31:56;;;;;;;7.78;2.40;;;;;;;;;;4876340;29;20071;-72
2022/07/14 10:34:56;;;;;;;5.78;2.20;;;;;;;;;;4891350;29;20532;-72
2022/07/14 10:37:46;;;;;;;5.72;2.40;;;;;;;;;;4857660;29;20073;-73
2022/07/14 10:40:41;;;;;;;6.97;2.72;;;;;;;;;;4820769;29;20451;-72
2022/07/14 10:43:24;;;;;;;5.95;2.88;;;;;;;;;;4820993;29;20057;-72
2022/07/14 10:45:56;;;;;;;5.45;2.25;;;;;;;;;;4820838;29;20070;-71
2022/07/14 10:48:35;;;;;;;6.75;2.83;;;;;;;;;;4820770;29;20058;-71
2022/07/14 10:51:27;;;;;;;5.38;2.80;;;;;;;;;;4802395;29;20058;-71
2022/07/14 10:54:34;;;;;;;5.45;2.42;;;;;;;;;;4802400;29;20054;-72
2022/07/14 10:57:16;;;;;;;9.23;2.95;;;;;;;;;;4802382;29;20520;-73
2022/07/14 10:59:48;;;;;;;6.95;3.50;;;;;;;;;;4739686;30;20054;-73
2022/07/14 11:02:21;;;;;;;9.15;4.25;;;;;;;;;;4784189;30;20055;-72
2022/07/14 11:04:59;;;;;;;13.82;5.97;;;;;;;;;;4784417;30;20066;-72
2022/07/14 11:07:38;;;;;;;7.50;4.03;;;;;;;;;;4754320;30;20390;-72
2022/07/14 11:10:20;;;;;;;6.95;2.83;;;;;;;;;;4754341;30;20603;-70
2022/07/14 11:13:06;;;;;;;6.00;2.58;;;;;;;;;;4754293;30;20055;-70
2022/07/14 11:15:45;;;;;;;6.57;2.80;;;;;;;;;;4784002;30;20468;-69
2022/07/14 11:18:18;;;;;;;10.07;3.08;;;;;;;;;;4798542;29;20523;-70
2022/07/14 11:20:55;;;;;;;10.05;3.65;;;;;;;;;;4801921;29;20063;-70
2022/07/14 11:23:32;;;;;;;7.80;3.20;;;;;;;;;;4802344;29;20058;-70
2022/07/14 11:26:05;;;;;;;5.65;2.72;;;;;;;;;;4766075;30;20063;-69
2022/07/14 11:28:43;;;;;;;7.05;2.83;;;;;;;;;;4773935;30;20063;-69
2022/07/14 11:31:17;;;;;;;5.68;2.20;;;;;;;;;;4784259;30;20063;-70
2022/07/14 11:36:45;;;;;;;4.85;2.35;;;;;;;;;;4775789;29;20063;-71
2022/07/14 11:39:24;;;;;;;13.90;4.20;;;;;;;;;;4820135;29;20063;-69
2022/07/14 11:42:08;;;;;;;11.60;3.53;;;;;;;;;;4820359;29;20062;-70
2022/07/14 11:44:40;;;;;;;6.10;2.63;;;;;;;;;;4783806;29;20055;-70
2022/07/14 11:47:21;;;;;;;4.03;2.05;;;;;;;;;;4783840;30;20062;-70
2022/07/14 11:50:08;;;;;;;4.72;2.20;;;;;;;;;;4783923;29;20073;-69
2022/07/14 11:52:42;;;;;;;5.70;2.47;;;;;;;;;;4789068;29;20070;-70
2022/07/14 11:55:13;;;;;;;6.65;2.47;;;;;;;;;;4783663;30;20489;-70
2022/07/14 11:57:51;;;;;;;5.28;2.15;;;;;;;;;;4785964;29;20055;-70
2022/07/14 12:00:21;;;;;;;4.70;1.80;;;;;;;;;;4787544;30;20062;-69
2022/07/14 12:02:58;;;;;;;3.78;2.03;;;;;;;;;;4794072;29;20487;-70
2022/07/14 12:05:30;;;;;;;4.97;1.90;;;;;;;;;;4762561;29;20057;-70
2022/07/14 12:08:02;;;;;;;8.00;1.92;;;;;;;;;;4805252;29;20071;-70
2022/07/14 12:10:38;;;;;;;4.25;2.13;;;;;;;;;;4762732;29;20171;-69
2022/07/14 12:13:09;;;;;;;8.07;3.10;;;;;;;;;;4793880;29;20063;-70
2022/07/14 12:15:40;;;;;;;6.50;2.08;;;;;;;;;;4805125;29;20062;-69
2022/07/14 12:18:12;;;;;;;4.53;2.42;;;;;;;;;;4805349;29;20059;-69
2022/07/14 12:20:47;;;;;;;2.88;1.63;;;;;;;;;;4804870;29;20086;-69
2022/07/14 12:23:18;;;;;;;5.78;1.85;;;;;;;;;;4791373;29;20384;-70
2022/07/14 12:25:49;;;;;;;3.80;1.95;;;;;;;;;;4823015;29;20499;-69
2022/07/14 12:28:21;;;;;;;4.00;1.80;;;;;;;;;;4808273;29;20074;-68
2022/07/14 12:30:59;;;;;;;4.30;2.05;;;;;;;;;;4808369;29;20065;-69
2022/07/14 12:33:39;;;;;;;3.78;1.95;;;;;;;;;;4805477;29;20062;-69
2022/07/14 12:36:15;;;;;;;4.25;1.95;;;;;;;;;;4844570;29;20053;-69
2022/07/14 12:38:46;;;;;;;5.68;1.75;;;;;;;;;;4841342;29;20690;-69
2022/07/14 12:41:21;;;;;;;6.22;1.70;;;;;;;;;;4841062;29;20062;-69
2022/07/14 12:43:53;;;;;;;6.20;3.22;;;;;;;;;;4855788;29;20054;-70
2022/07/14 12:46:24;;;;;;;5.93;2.30;;;;;;;;;;4874640;29;20050;-70
2022/07/14 12:48:59;;;;;;;3.90;2.03;;;;;;;;;;4859583;29;20069;-69
2022/07/14 12:51:43;;;;;;;7.15;2.35;;;;;;;;;;4813745;29;20061;-69
2022/07/14 12:54:30;;;;;;;4.07;1.65;;;;;;;;;;4843563;29;20464;-69
2022/07/14 12:57:24;;;;;;;5.68;1.70;;;;;;;;;;4841026;29;20061;-69
2022/07/14 12:59:55;;;;;;;5.25;2.15;;;;;;;;;;4840620;29;20065;-70
2022/07/14 13:02:25;;;;;;;6.03;1.98;;;;;;;;;;4810935;29;20480;-69
2022/07/14 13:05:03;;;;;;;8.27;3.83;;;;;;;;;;4840998;29;20058;-70
2022/07/14 13:07:40;;;;;;;5.57;2.42;;;;;;;;;;4840611;29;20081;-69
2022/07/14 13:10:22;;;;;;;5.85;2.95;;;;;;;;;;4840257;29;20626;-72
2022/07/14 13:12:55;;;;;;;7.00;2.80;;;;;;;;;;4840473;29;20336;-72
2022/07/14 13:15:27;;;;;;;8.57;3.47;;;;;;;;;;4825460;29;20061;-72
2022/07/14 13:18:02;;;;;;;13.30;5.22;;;;;;;;;;4810256;29;20066;-72
2022/07/14 13:20:48;;;;;;;13.20;5.22;;;;;;;;;;4842403;29;20054;-72
2022/07/14 13:23:33;;;;;;;15.05;6.10;;;;;;;;;;4843951;29;20049;-73
2022/07/14 13:26:15;;;;;;;10.20;3.90;;;;;;;;;;4840518;29;20065;-72
2022/07/14 13:28:53;;;;;;;9.05;3.10;;;;;;;;;;4840324;29;20058;-71
2022/07/14 13:31:24;;;;;;;9.32;3.00;;;;;;;;;;4788289;29;20066;-72
2022/07/14 13:33:58;;;;;;;4.68;2.67;;;;;;;;;;4803889;29;20050;-72
2022/07/14 13:36:30;;;;;;;11.27;3.28;;;;;;;;;;4802291;29;20096;-72
2022/07/14 13:39:01;;;;;;;8.23;3.20;;;;;;;;;;4785920;29;20062;-72
2022/07/14 13:41:31;;;;;;;6.50;2.65;;;;;;;;;;4756671;30;20059;-74
2022/07/14 13:44:06;;;;;;;6.57;2.67;;;;;;;;;;4785756;29;20421;-73
2022/07/14 13:46:37;;;;;;;4.80;2.58;;;;;;;;;;4785866;29;20055;-72
2022/07/14 13:49:14;;;;;;;9.50;2.60;;;;;;;;;;4799289;29;20509;-73
2022/07/14 13:54:34;;;;;;;6.88;3.03;;;;;;;;;;4759055;29;20059;-73
2022/07/14 13:57:06;;;;;;;7.22;2.70;;;;;;;;;;4803191;29;20054;-73
2022/07/14 13:59:38;;;;;;;5.57;3.45;;;;;;;;;;4774788;29;20081;-73
2022/07/14 14:02:09;;;;;;;8.13;3.38;;;;;;;;;;4773459;29;20058;-67
2022/07/14 14:04:40;;;;;;;5.95;2.70;;;;;;;;;;4803445;29;20405;-68
2022/07/14 14:07:17;;;;;;;6.45;2.90;;;;;;;;;;4803592;29;20420;-69
2022/07/14 14:09:48;;;;;;;4.68;2.47;;;;;;;;;;4802127;29;20053;-72
2022/07/14 14:12:19;;;;;;;6.80;2.33;;;;;;;;;;4858170;29;20446;-74
2022/07/14 14:14:50;;;;;;;6.10;2.35;;;;;;;;;;4858087;29;20506;-74
2022/07/14 14:17:21;;;;;;;6.82;2.15;;;;;;;;;;4857773;29;20066;-73
2022/07/14 14:19:52;;;;;;;4.95;2.25;;;;;;;;;;4857450;29;20438;-72
2022/07/14 14:22:22;;;;;;;6.00;2.63;;;;;;;;;;4852564;29;20062;-71
2022/07/14 14:24:52;;;;;;;6.07;2.90;;;;;;;;;;4839716;29;20160;-71
2022/07/14 14:27:22;;;;;;;6.40;2.53;;;;;;;;;;4865349;29;20097;-70
2022/07/14 14:29:52;;;;;;;9.00;3.30;;;;;;;;;;4876419;29;20045;-72
2022/07/14 14:32:22;;;;;;;4.90;2.47;;;;;;;;;;4876355;29;20056;-69
2022/07/14 14:34:54;;;;;;;5.43;2.33;;;;;;;;;;4888375;29;20064;-70
2022/07/14 14:37:24;;;;;;;6.25;2.22;;;;;;;;;;4897517;29;20056;-70
2022/07/14 14:39:54;;;;;;;5.13;2.78;;;;;;;;;;4864399;29;20072;-71
2022/07/14 14:42:25;;;;;;;5.28;2.47;;;;;;;;;;4863898;29;20053;-71
2022/07/14 14:44:55;;;;;;;10.93;4.03;;;;;;;;;;4897243;29;20114;-70
2022/07/14 14:47:26;;;;;;;9.82;5.10;;;;;;;;;;4864074;29;20061;-70
2022/07/14 14:49:56;;;;;;;11.40;5.38;;;;;;;;;;4897026;29;20044;-69
2022/07/14 14:52:27;;;;;;;6.68;3.17;;;;;;;;;;4897211;29;20045;-69
2022/07/14 14:54:58;;;;;;;7.05;2.13;;;;;;;;;;4879864;29;20064;-69
2022/07/14 14:57:28;;;;;;;12.20;3.08;;;;;;;;;;4879637;29;20417;-68
2022/07/14 14:59:59;;;;;;;6.63;2.50;;;;;;;;;;4896937;29;20051;-69
2022/07/14 15:02:31;;;;;;;7.28;2.90;;;;;;;;;;4894569;29;20064;-69
2022/07/14 15:05:02;;;;;;;8.32;3.95;;;;;;;;;;4879438;29;20056;-69
2022/07/14 15:07:33;;;;;;;10.07;4.97;;;;;;;;;;4879626;29;20421;-68
2022/07/14 15:10:05;;;;;;;4.32;2.30;;;;;;;;;;4896710;29;20056;-69
2022/07/14 15:12:36;;;;;;;6.63;2.90;;;;;;;;;;4863872;29;20071;-69
2022/07/14 15:15:07;;;;;;;9.70;5.07;;;;;;;;;;4896671;29;20045;-70
2022/07/14 15:17:38;;;;;;;7.47;3.00;;;;;;;;;;4862898;29;20544;-68
2022/07/14 15:20:09;;;;;;;7.45;2.75;;;;;;;;;;4856887;29;20049;-69
2022/07/14 15:22:39;;;;;;;5.60;3.10;;;;;;;;;;4875168;29;20053;-69
2022/07/14 15:25:10;;;;;;;7.47;3.28;;;;;;;;;;4875458;29;20498;-69
2022/07/14 15:27:40;;;;;;;9.55;3.40;;;;;;;;;;4875443;29;20065;-70
2022/07/14 15:30:11;;;;;;;14.70;4.88;;;;;;;;;;4875408;29;20060;-69
2022/07/14 15:32:41;;;;;;;11.43;3.88;;;;;;;;;;4829504;29;20060;-69
2022/07/14 15:35:12;;;;;;;12.38;4.65;;;;;;;;;;4875258;29;20064;-68